Terminal Aerodrome Forecast
Issued by NWS Upton, NY

Home | Current Version | Previous Version | Text Only | Print | Product List | Glossary On
Versions: 1 2 3 4 5 6 7 8 9 10 11 12 13 14 15 16 17 18 19 20 21 22 23 24 25 26
000
FTUS41 KOKX 240834 AAA
TAFBDR
TAF AMD
KBDR 240834Z 2409/2506 16016G26KT P6SM BKN012 OVC020 WS020/17050KT
     FM241300 17015G24KT 3SM SHRA SCT005 OVC012 WS020/17050KT
     FM241600 17017G33KT 2SM +SHRA VCTS SCT005 OVC012CB
      WS020/17050KT
     FM250200 19016G24KT 2SM +SHRA VCTS SCT005 OVC012CB
      WS020/17050KT=

USA.gov is the U.S. government's official web portal to all federal, state and local government web resources and services.